Time,TemperatureF,DewpointF,PressureIn,WindDirection,WindDirectionDegrees,WindSpeedMPH,WindSpeedGustMPH,Humidity,HourlyPrecipIn,Conditions,Clouds,dailyrainin,SolarRadiationWatts/m^2,SoftwareType,DateUTC
2013-02-04 00:01:00,72.0,61.0,-100.00,East,97,6.0,12.0,68,0.00,,,0.00,0.000000,,2013-02-04 10:01:00,
2013-02-04 00:11:00,72.0,61.0,-100.00,East,97,6.0,12.0,68,0.00,,,0.00,0.000000,,2013-02-04 10:11:00,
2013-02-04 00:42:00,70.0,62.0,-100.00,ESE,116,5.0,8.0,76,0.00,,,0.00,0.000000,,2013-02-04 10:42:00,
2013-02-04 00:52:00,70.0,62.0,-100.00,ESE,116,5.0,8.0,76,0.00,,,0.00,0.000000,,2013-02-04 10:52:00,
2013-02-04 01:01:00,70.0,62.0,-100.00,ESE,116,5.0,8.0,76,0.00,,,0.00,0.000000,,2013-02-04 11:01:00,
2013-02-04 01:11:00,70.0,62.0,-100.00,ESE,116,5.0,8.0,76,0.00,,,0.00,0.000000,,2013-02-04 11:11:00,
2013-02-04 01:42:00,70.0,62.0,-100.00,NE,42,5.0,9.0,75,0.00,,,0.00,0.000000,,2013-02-04 11:42:00,
2013-02-04 01:52:00,70.0,62.0,-100.00,NE,42,5.0,9.0,75,0.00,,,0.00,0.000000,,2013-02-04 11:52:00,
2013-02-04 02:02:00,70.0,62.0,-100.00,NE,42,5.0,9.0,75,0.00,,,0.00,0.000000,,2013-02-04 12:02:00,
2013-02-04 02:12:00,70.0,62.0,-100.00,NE,42,5.0,9.0,75,0.00,,,0.00,0.000000,,2013-02-04 12:12:00,
2013-02-04 02:33:00,70.0,62.0,-100.00,ESE,113,5.0,8.0,75,0.00,,,0.00,0.000000,,2013-02-04 12:33:00,
2013-02-04 02:42:00,70.0,62.0,-100.00,ESE,113,5.0,8.0,75,0.00,,,0.00,0.000000,,2013-02-04 12:42:00,
2013-02-04 02:53:00,70.0,62.0,-100.00,ESE,113,5.0,8.0,75,0.00,,,0.00,0.000000,,2013-02-04 12:53:00,
2013-02-04 03:02:00,70.0,62.0,-100.00,ESE,113,5.0,8.0,75,0.00,,,0.00,0.000000,,2013-02-04 13:02:00,
2013-02-04 03:11:00,70.0,62.0,-100.00,ESE,113,5.0,8.0,75,0.00,,,0.00,0.000000,,2013-02-04 13:11:00,
2013-02-04 03:42:00,67.0,58.0,-100.00,ENE,58,5.0,7.0,74,0.00,,,0.00,0.000000,,2013-02-04 13:42:00,
2013-02-04 03:52:00,67.0,58.0,-100.00,ENE,58,5.0,7.0,74,0.00,,,0.00,0.000000,,2013-02-04 13:52:00,
2013-02-04 04:02:00,67.0,58.0,-100.00,ENE,58,5.0,7.0,74,0.00,,,0.00,0.000000,,2013-02-04 14:02:00,
2013-02-04 04:11:00,67.0,58.0,-100.00,ENE,58,5.0,7.0,74,0.00,,,0.00,0.000000,,2013-02-04 14:11:00,
2013-02-04 04:33:00,69.0,58.0,-100.00,ENE,78,5.0,7.0,69,0.00,,,0.00,0.000000,,2013-02-04 14:33:00,
2013-02-04 04:42:00,69.0,58.0,-100.00,ENE,78,5.0,7.0,69,0.00,,,0.00,0.000000,,2013-02-04 14:42:00,
2013-02-04 04:52:00,69.0,58.0,-100.00,ENE,78,5.0,7.0,69,0.00,,,0.00,0.000000,,2013-02-04 14:52:00,
2013-02-04 05:03:00,69.0,58.0,-100.00,ENE,78,5.0,7.0,69,0.00,,,0.00,0.000000,,2013-02-04 15:03:00,
2013-02-04 05:12:00,69.0,58.0,-100.00,ENE,78,5.0,7.0,69,0.00,,,0.00,0.000000,,2013-02-04 15:12:00,
2013-02-04 05:33:00,67.0,56.0,-100.00,East,100,3.0,7.0,69,0.00,,,0.00,0.000000,,2013-02-04 15:33:00,
2013-02-04 05:43:00,67.0,56.0,-100.00,East,100,3.0,7.0,69,0.00,,,0.00,0.000000,,2013-02-04 15:43:00,
2013-02-04 05:52:00,67.0,56.0,-100.00,East,100,3.0,7.0,69,0.00,,,0.00,0.000000,,2013-02-04 15:52:00,
2013-02-04 06:02:00,67.0,56.0,-100.00,East,100,3.0,7.0,69,0.00,,,0.00,0.000000,,2013-02-04 16:02:00,
2013-02-04 06:11:00,67.0,56.0,-100.00,East,100,3.0,7.0,69,0.00,,,0.00,0.000000,,2013-02-04 16:11:00,
2013-02-04 07:42:00,67.0,60.0,-100.00,ENE,68,6.0,7.0,77,-99.99,,,0.00,2.000000,,2013-02-04 17:42:00,
2013-02-04 07:52:00,67.0,60.0,-100.00,ENE,68,6.0,7.0,77,-99.99,,,0.00,2.000000,,2013-02-04 17:52:00,
2013-02-04 08:03:00,67.0,60.0,-100.00,ENE,68,6.0,7.0,77,-99.99,,,0.00,2.000000,,2013-02-04 18:03:00,
2013-02-04 08:11:00,67.0,60.0,-100.00,ENE,68,6.0,7.0,77,-99.99,,,0.00,2.000000,,2013-02-04 18:11:00,
2013-02-04 08:32:00,72.0,61.0,-100.00,ENE,73,5.0,7.0,69,0.00,,,-99.99,93.000000,,2013-02-04 18:32:00,
2013-02-04 08:42:00,72.0,61.0,-100.00,ENE,73,5.0,7.0,69,0.00,,,-99.99,93.000000,,2013-02-04 18:42:00,
2013-02-04 08:52:00,72.0,61.0,-100.00,ENE,73,5.0,7.0,69,0.00,,,-99.99,93.000000,,2013-02-04 18:52:00,
2013-02-04 09:01:00,72.0,61.0,-100.00,ENE,73,5.0,7.0,69,0.00,,,-99.99,93.000000,,2013-02-04 19:01:00,
2013-02-04 09:11:00,72.0,61.0,-100.00,ENE,73,5.0,7.0,69,0.00,,,-99.99,93.000000,,2013-02-04 19:11:00,
2013-02-04 09:42:00,78.0,63.0,-100.00,West,260,4.0,6.0,60,0.00,,,0.00,330.000000,,2013-02-04 19:42:00,
2013-02-04 09:52:00,78.0,63.0,-100.00,West,260,4.0,6.0,60,0.00,,,0.00,330.000000,,2013-02-04 19:52:00,
2013-02-04 10:02:00,78.0,63.0,-100.00,West,260,4.0,6.0,60,0.00,,,0.00,330.000000,,2013-02-04 20:02:00,
2013-02-04 10:11:00,78.0,63.0,-100.00,West,260,4.0,6.0,60,0.00,,,0.00,330.000000,,2013-02-04 20:11:00,
2013-02-04 10:42:00,78.0,62.0,-100.00,WSW,238,6.0,9.0,59,0.00,,,0.00,580.000000,,2013-02-04 20:42:00,
2013-02-04 10:52:00,78.0,62.0,-100.00,WSW,238,6.0,9.0,59,0.00,,,0.00,580.000000,,2013-02-04 20:52:00,
2013-02-04 11:01:00,78.0,62.0,-100.00,WSW,238,6.0,9.0,59,0.00,,,0.00,580.000000,,2013-02-04 21:01:00,
2013-02-04 11:11:00,78.0,62.0,-100.00,WSW,238,6.0,9.0,59,0.00,,,0.00,580.000000,,2013-02-04 21:11:00,
2013-02-04 11:43:00,79.0,62.0,-100.00,SSW,200,7.0,12.0,56,0.00,,,0.00,726.000000,,2013-02-04 21:43:00,
2013-02-04 11:52:00,79.0,62.0,-100.00,SSW,200,7.0,12.0,56,0.00,,,0.00,726.000000,,2013-02-04 21:52:00,
2013-02-04 12:02:00,79.0,62.0,-100.00,SSW,200,7.0,12.0,56,0.00,,,0.00,726.000000,,2013-02-04 22:02:00,
2013-02-04 12:11:00,79.0,62.0,-100.00,SSW,200,7.0,12.0,56,0.00,,,0.00,726.000000,,2013-02-04 22:11:00,
2013-02-04 12:42:00,77.0,63.0,-100.00,South,172,7.0,11.0,61,0.00,,,0.00,373.000000,,2013-02-04 22:42:00,
2013-02-04 12:52:00,77.0,63.0,-100.00,South,172,7.0,11.0,61,0.00,,,0.00,373.000000,,2013-02-04 22:52:00,
2013-02-04 13:01:00,77.0,63.0,-100.00,South,172,7.0,11.0,61,0.00,,,0.00,373.000000,,2013-02-04 23:01:00,
2013-02-04 13:11:00,77.0,63.0,-100.00,South,172,7.0,11.0,61,0.00,,,0.00,373.000000,,2013-02-04 23:11:00,
2013-02-04 13:32:00,78.0,62.0,-100.00,South,187,8.0,11.0,59,0.00,,,0.00,313.000000,,2013-02-04 23:32:00,
2013-02-04 13:42:00,78.0,62.0,-100.00,South,187,8.0,11.0,59,0.00,,,0.00,313.000000,,2013-02-04 23:42:00,
2013-02-04 13:52:00,78.0,62.0,-100.00,South,187,8.0,11.0,59,0.00,,,0.00,313.000000,,2013-02-04 23:52:00,
2013-02-04 14:01:00,78.0,62.0,-100.00,South,187,8.0,11.0,59,0.00,,,0.00,313.000000,,2013-02-05 00:01:00,
2013-02-04 14:11:00,78.0,62.0,-100.00,South,187,8.0,11.0,59,0.00,,,0.00,313.000000,,2013-02-05 00:11:00,
2013-02-04 14:42:00,78.0,63.0,-100.00,South,172,6.0,12.0,60,0.00,,,0.00,316.000000,,2013-02-05 00:42:00,
2013-02-04 14:52:00,78.0,63.0,-100.00,South,172,6.0,12.0,60,0.00,,,0.00,316.000000,,2013-02-05 00:52:00,
2013-02-04 15:01:00,78.0,63.0,-100.00,South,172,6.0,12.0,60,0.00,,,0.00,316.000000,,2013-02-05 01:01:00,
2013-02-04 15:11:00,78.0,63.0,-100.00,South,172,6.0,12.0,60,0.00,,,0.00,316.000000,,2013-02-05 01:11:00,
2013-02-04 15:42:00,78.0,63.0,-100.00,South,182,5.0,11.0,60,0.00,,,0.00,263.000000,,2013-02-05 01:42:00,
2013-02-04 15:52:00,78.0,63.0,-100.00,South,182,5.0,11.0,60,0.00,,,0.00,263.000000,,2013-02-05 01:52:00,
2013-02-04 16:01:00,78.0,63.0,-100.00,South,182,5.0,11.0,60,0.00,,,0.00,263.000000,,2013-02-05 02:01:00,
2013-02-04 16:11:00,78.0,63.0,-100.00,South,182,5.0,11.0,60,0.00,,,0.00,263.000000,,2013-02-05 02:11:00,
2013-02-04 16:42:00,76.0,61.0,-100.00,West,267,5.0,7.0,60,0.00,,,0.00,158.000000,,2013-02-05 02:42:00,
2013-02-04 16:52:00,76.0,61.0,-100.00,West,267,5.0,7.0,60,0.00,,,0.00,158.000000,,2013-02-05 02:52:00,
2013-02-04 17:01:00,76.0,61.0,-100.00,West,267,5.0,7.0,60,0.00,,,0.00,158.000000,,2013-02-05 03:01:00,
2013-02-04 17:11:00,76.0,61.0,-100.00,West,267,5.0,7.0,60,0.00,,,0.00,158.000000,,2013-02-05 03:11:00,
2013-02-04 17:32:00,76.0,63.0,-100.00,West,279,5.0,7.0,64,0.00,,,0.00,70.000000,,2013-02-05 03:32:00,
2013-02-04 17:42:00,76.0,63.0,-100.00,West,279,5.0,7.0,64,0.00,,,0.00,70.000000,,2013-02-05 03:42:00,
2013-02-04 17:52:00,76.0,63.0,-100.00,West,279,5.0,7.0,64,0.00,,,0.00,70.000000,,2013-02-05 03:52:00,
2013-02-04 18:01:00,76.0,63.0,-100.00,West,279,5.0,7.0,64,0.00,,,0.00,70.000000,,2013-02-05 04:01:00,
2013-02-04 18:11:00,76.0,63.0,-100.00,West,279,5.0,7.0,64,0.00,,,0.00,70.000000,,2013-02-05 04:11:00,
2013-02-04 18:32:00,76.0,59.0,-100.00,NNW,348,7.0,13.0,55,0.00,,,0.00,54.000000,,2013-02-05 04:32:00,
2013-02-04 18:42:00,76.0,59.0,-100.00,NNW,348,7.0,13.0,55,0.00,,,0.00,54.000000,,2013-02-05 04:42:00,
2013-02-04 18:52:00,76.0,59.0,-100.00,NNW,348,7.0,13.0,55,0.00,,,0.00,54.000000,,2013-02-05 04:52:00,
2013-02-04 19:02:00,76.0,59.0,-100.00,NNW,348,7.0,13.0,55,0.00,,,0.00,54.000000,,2013-02-05 05:02:00,
2013-02-04 19:11:00,76.0,59.0,-100.00,NNW,348,7.0,13.0,55,0.00,,,0.00,54.000000,,2013-02-05 05:11:00,
2013-02-04 19:42:00,73.0,59.0,-100.00,East,95,8.0,11.0,61,0.00,,,0.00,1.000000,,2013-02-05 05:42:00,
2013-02-04 19:52:00,73.0,59.0,-100.00,East,95,8.0,11.0,61,0.00,,,0.00,1.000000,,2013-02-05 05:52:00,
2013-02-04 20:01:00,73.0,59.0,-100.00,East,95,8.0,11.0,61,0.00,,,0.00,1.000000,,2013-02-05 06:01:00,
2013-02-04 20:11:00,73.0,59.0,-100.00,East,95,8.0,11.0,61,0.00,,,0.00,1.000000,,2013-02-05 06:11:00,
2013-02-04 20:32:00,72.0,60.0,-100.00,ENE,63,4.0,12.0,67,0.00,,,0.00,0.000000,,2013-02-05 06:32:00,
2013-02-04 20:42:00,72.0,60.0,-100.00,ENE,63,4.0,12.0,67,0.00,,,0.00,0.000000,,2013-02-05 06:42:00,
2013-02-04 20:52:00,72.0,60.0,-100.00,ENE,63,4.0,12.0,67,0.00,,,0.00,0.000000,,2013-02-05 06:52:00,
2013-02-04 21:01:00,72.0,60.0,-100.00,ENE,63,4.0,12.0,67,0.00,,,0.00,0.000000,,2013-02-05 07:01:00,
2013-02-04 21:11:00,72.0,60.0,-100.00,ENE,63,4.0,12.0,67,0.00,,,0.00,0.000000,,2013-02-05 07:11:00,
2013-02-04 21:32:00,69.0,58.0,-100.00,SSW,212,2.0,5.0,68,0.00,,,0.00,0.000000,,2013-02-05 07:32:00,
2013-02-04 21:42:00,69.0,58.0,-100.00,SSW,212,2.0,5.0,68,0.00,,,0.00,0.000000,,2013-02-05 07:42:00,
2013-02-04 21:52:00,69.0,58.0,-100.00,SSW,212,2.0,5.0,68,0.00,,,0.00,0.000000,,2013-02-05 07:52:00,
2013-02-04 22:01:00,69.0,58.0,-100.00,SSW,212,2.0,5.0,68,0.00,,,0.00,0.000000,,2013-02-05 08:01:00,
2013-02-04 22:11:00,69.0,58.0,-100.00,SSW,212,2.0,5.0,68,0.00,,,0.00,0.000000,,2013-02-05 08:11:00,
2013-02-04 22:42:00,68.0,58.0,-100.00,ESE,105,5.0,9.0,71,0.00,,,0.00,0.000000,,2013-02-05 08:42:00,
2013-02-04 22:52:00,68.0,58.0,-100.00,ESE,105,5.0,9.0,71,0.00,,,0.00,0.000000,,2013-02-05 08:52:00,
2013-02-04 23:02:00,68.0,58.0,-100.00,ESE,105,5.0,9.0,71,0.00,,,0.00,0.000000,,2013-02-05 09:02:00,
2013-02-04 23:11:00,68.0,58.0,-100.00,ESE,105,5.0,9.0,71,0.00,,,0.00,0.000000,,2013-02-05 09:11:00,
2013-02-04 23:42:00,67.0,58.0,-100.00,NE,52,4.0,7.0,74,0.00,,,0.00,0.000000,,2013-02-05 09:42:00,
2013-02-04 23:52:00,67.0,58.0,-100.00,NE,52,4.0,7.0,74,0.00,,,0.00,0.000000,,2013-02-05 09:52:00,